This is the latest recevied weather packets stored in our database for station/object KB9GXK. If no packets are shown the sender has not sent any weather packets the latest 1 day(s).
| Time | Temp. | Humidity | Pressure | Rain* | Wind** | Luminosity | Snow |
|---|---|---|---|---|---|---|---|
| 1836274697 | 21.11° C | 86% | 1018.1 hPa | 0 mm | 0.45 m/s, 32° | 0 W/m² | - |
| 1836274549 | 21.11° C | 85% | 1017.9 hPa | 0 mm | 0.89 m/s, 45° | 0 W/m² | - |
| 1836274395 | 20.56° C | 86% | 1018.2 hPa | 0 mm | 0.89 m/s, 24° | 0 W/m² | - |
| 1836274248 | 21.11° C | 86% | 1017.8 hPa | 0 mm | 0 m/s | 0 W/m² | - |
| 1836274092 | 20.56° C | 87% | 1018.1 hPa | 0 mm | 0 m/s | 0 W/m² | - |
| 1778039183 | 8.33° C | 55% | 1011.2 hPa | 0 mm | 0 m/s | 0 W/m² | - |
| 1778038880 | 8.33° C | 54% | 1011.1 hPa | 0 mm | 0 m/s | 0 W/m² | - |
| 1778038577 | 8.33° C | 53% | 1010.9 hPa | 0 mm | 0 m/s | 0 W/m² | - |
| 1778038274 | 8.89° C | 53% | 1011.2 hPa | 0 mm | 0 m/s | 0 W/m² | - |
| 1778037972 | 8.89° C | 51% | 1010.9 hPa | 0 mm | 0 m/s | 0 W/m² | - |
| 1778037668 | 9.44° C | 50% | 1011.2 hPa | 0 mm | 0 m/s | 0 W/m² | - |
| 1778037365 | 8.89° C | 49% | 1011.2 hPa | 0 mm | 0 m/s | 0 W/m² | - |
| 1778037062 | 8.89° C | 50% | 1011.3 hPa | 0 mm | 0 m/s | 0 W/m² | - |
| 1778036761 | 9.44° C | 49% | 1011.3 hPa | 0 mm | 0 m/s | 0 W/m² | - |
| 1778036457 | 9.44° C | 47% | 1011.3 hPa | 0 mm | 0 m/s | 0 W/m² | - |
| 1778036154 | 9.44° C | 46% | 1011.1 hPa | 0 mm | 0 m/s | 0 W/m² | - |
| 1778035850 | 10° C | 46% | 1010.9 hPa | 0 mm | 0 m/s | 0 W/m² | - |
| 1778035548 | 10° C | 46% | 1010.7 hPa | 0 mm | 0 m/s | 0 W/m² | - |
| 1778035244 | 10° C | 45% | 1010.7 hPa | 0 mm | 0.45 m/s, 347° | 0 W/m² | - |
| 1778034940 | 10° C | 45% | 1010.8 hPa | 0 mm | 0.45 m/s, 28° | 0 W/m² | - |
| 1778034638 | 10° C | 46% | 1010.8 hPa | 0 mm | 0.45 m/s, 13° | 0 W/m² | - |
| 1778034335 | 10° C | 48% | 1010.6 hPa | 0 mm | 0 m/s | 0 W/m² | - |
| 1778034032 | 9.44° C | 49% | 1010.6 hPa | 0 mm | 0 m/s | 0 W/m² | - |
| 1778033730 | 9.44° C | 50% | 1010.8 hPa | 0 mm | 0 m/s | 0 W/m² | - |
| 1778033427 | 9.44° C | 51% | 1010.4 hPa | 0 mm | 0 m/s | 0 W/m² | - |
* Rain latest hour (hover to see other rain measurements)
** Current wind speed in m/s (hover to see current wind gust speed)